createdAt,value
2023-02-17T00:01:22.632Z,0.03
2023-02-17T00:03:51.292Z,-0.02
2023-02-17T00:06:25.423Z,0.10
2023-02-17T00:08:52.895Z,0.01
2023-02-17T00:11:21.257Z,-0.02
2023-02-17T00:13:49.164Z,0.01
2023-02-17T00:16:20.744Z,0.13
2023-02-17T00:18:52.361Z,-0.07
2023-02-17T00:21:22.200Z,-0.05
2023-02-17T00:23:50.894Z,-0.07
2023-02-17T00:26:19.478Z,-0.09
2023-02-17T00:28:47.737Z,-0.10
2023-02-17T00:31:19.128Z,-0.01
2023-02-17T00:33:46.916Z,-0.17
2023-02-17T00:36:20.702Z,-0.11
2023-02-17T00:38:49.145Z,-0.16
2023-02-17T00:41:17.668Z,-0.12
2023-02-17T00:43:45.272Z,-0.17
2023-02-17T00:46:13.105Z,-0.08
2023-02-17T00:48:41.382Z,-0.14
2023-02-17T00:51:09.605Z,-0.12
2023-02-17T00:53:37.364Z,-0.12
2023-02-17T00:56:06.021Z,-0.10
2023-02-17T00:58:33.830Z,-0.01
2023-02-17T01:01:02.385Z,0.04
2023-02-17T01:03:30.193Z,0.01
2023-02-17T01:05:59.031Z,0.15
2023-02-17T01:08:26.319Z,0.18
2023-02-17T01:10:55.371Z,0.22
2023-02-17T01:13:22.693Z,0.12
2023-02-17T01:15:52.492Z,0.21
2023-02-17T01:18:23.244Z,0.13
2023-02-17T01:20:51.767Z,0.12
2023-02-17T01:23:19.005Z,0.12
2023-02-17T01:25:48.050Z,0.16
2023-02-17T01:28:20.637Z,0.17
2023-02-17T01:30:49.209Z,0.11
2023-02-17T01:33:16.406Z,0.10
2023-02-17T01:35:43.936Z,0.10
2023-02-17T01:38:12.932Z,0.10
2023-02-17T01:40:48.295Z,0.26
2023-02-17T01:43:18.086Z,0.31
2023-02-17T01:45:57.635Z,0.37
2023-02-17T01:48:29.300Z,0.44
2023-02-17T01:51:05.030Z,0.49
2023-02-17T01:53:41.190Z,0.68
2023-02-17T01:56:12.096Z,0.76
2023-02-17T01:58:42.964Z,0.84
2023-02-17T02:01:10.835Z,0.79
2023-02-17T02:03:39.466Z,0.80
2023-02-17T02:06:12.238Z,0.81
2023-02-17T02:08:51.461Z,0.74
2023-02-17T02:11:18.993Z,0.57
2023-02-17T02:13:49.804Z,0.52
2023-02-17T02:16:34.100Z,0.54
2023-02-17T02:19:35.344Z,0.55
2023-02-17T02:22:15.921Z,0.44
2023-02-17T02:25:09.167Z,0.49
2023-02-17T02:27:51.000Z,0.47
2023-02-17T02:30:27.271Z,0.50
2023-02-17T02:33:16.630Z,0.54
2023-02-17T02:35:58.950Z,0.54
2023-02-17T02:38:37.241Z,0.58
2023-02-17T02:41:11.890Z,0.62
2023-02-17T02:43:40.384Z,0.66
2023-02-17T02:46:09.396Z,0.86
2023-02-17T02:48:37.999Z,0.89
2023-02-17T02:51:14.224Z,1.04
2023-02-17T02:54:02.380Z,1.08
2023-02-17T02:56:51.682Z,1.17
2023-02-17T02:59:31.760Z,1.25
2023-02-17T03:02:17.463Z,1.26
2023-02-17T03:04:52.203Z,1.29
2023-02-17T03:07:24.945Z,1.26
2023-02-17T03:09:55.806Z,0.99
2023-02-17T03:12:23.973Z,0.73
2023-02-17T03:14:56.209Z,0.63
2023-02-17T03:17:23.460Z,0.65
2023-02-17T03:19:51.643Z,0.69
2023-02-17T03:22:40.911Z,0.94
2023-02-17T03:25:09.103Z,0.81
2023-02-17T03:27:36.294Z,0.86
2023-02-17T03:30:04.639Z,0.82
2023-02-17T03:32:31.839Z,0.70
2023-02-17T03:34:59.578Z,0.65
2023-02-17T03:37:26.905Z,0.59
2023-02-17T03:39:54.374Z,0.63
2023-02-17T03:42:21.596Z,0.63
2023-02-17T03:44:49.190Z,0.75
2023-02-17T03:47:16.431Z,0.75
2023-02-17T03:49:43.924Z,0.62
2023-02-17T03:52:11.164Z,0.62
2023-02-17T03:54:38.738Z,0.62
2023-02-17T03:57:06.023Z,0.69
2023-02-17T03:59:33.702Z,0.64
2023-02-17T04:02:01.003Z,0.51
2023-02-17T04:04:28.760Z,0.52
2023-02-17T04:06:55.981Z,0.46
2023-02-17T04:09:23.426Z,0.47
2023-02-17T04:11:50.670Z,0.50
2023-02-17T04:14:18.306Z,0.53
2023-02-17T04:16:45.572Z,0.53
2023-02-17T04:19:13.183Z,0.63
2023-02-17T04:21:40.444Z,0.58
2023-02-17T04:24:08.116Z,0.67
2023-02-17T04:26:35.351Z,0.75
2023-02-17T04:29:04.993Z,0.87
2023-02-17T04:31:32.617Z,0.94
2023-02-17T04:34:00.214Z,0.99
2023-02-17T04:36:27.470Z,1.01
2023-02-17T04:38:54.973Z,1.06
2023-02-17T04:41:22.068Z,1.13
2023-02-17T04:43:49.769Z,1.23
2023-02-17T04:46:16.920Z,1.20
2023-02-17T04:48:44.348Z,1.19
2023-02-17T04:51:11.477Z,1.28
2023-02-17T04:53:38.982Z,1.40
2023-02-17T04:56:06.831Z,1.53
2023-02-17T04:58:34.871Z,1.44
2023-02-17T05:01:02.019Z,1.25
2023-02-17T05:03:29.543Z,1.32
2023-02-17T05:05:57.019Z,1.31
2023-02-17T05:08:24.822Z,1.35
2023-02-17T05:10:52.682Z,1.34
2023-02-17T05:13:20.288Z,1.42
2023-02-17T05:15:47.503Z,1.57
2023-02-17T05:18:15.281Z,1.50
2023-02-17T05:20:42.470Z,1.45
2023-02-17T05:23:10.013Z,1.53
2023-02-17T05:25:37.148Z,1.54
2023-02-17T05:28:04.747Z,1.43
2023-02-17T05:30:31.947Z,1.48
2023-02-17T05:32:59.603Z,1.73
2023-02-17T05:35:29.228Z,1.57
2023-02-17T05:37:56.721Z,1.59
2023-02-17T05:40:23.854Z,1.67
2023-02-17T05:42:51.405Z,1.63
2023-02-17T05:45:18.635Z,1.69
2023-02-17T05:47:46.222Z,1.69
2023-02-17T05:50:13.597Z,1.71
2023-02-17T05:52:41.201Z,1.79
2023-02-17T05:55:08.794Z,1.86
2023-02-17T05:57:36.446Z,1.73
2023-02-17T06:00:05.182Z,1.68
2023-02-17T06:02:39.786Z,1.62
2023-02-17T06:05:08.631Z,1.62
2023-02-17T06:07:36.146Z,1.62
2023-02-17T06:24:27.161Z,-145.97
2023-02-17T06:26:54.729Z,-145.97
2023-02-17T06:29:21.947Z,-145.97
2023-02-17T06:31:49.766Z,-145.97
2023-02-17T06:34:17.502Z,-145.97
2023-02-17T06:36:45.366Z,-145.97
2023-02-17T06:39:12.651Z,-145.97
2023-02-17T06:41:40.375Z,-145.97
2023-02-17T06:44:07.594Z,-145.97
2023-02-17T06:46:37.376Z,-145.97
2023-02-17T06:49:04.964Z,-145.97
2023-02-17T06:51:32.669Z,-145.97
2023-02-17T06:53:59.946Z,-145.97
2023-02-17T06:56:27.614Z,-145.97
2023-02-17T06:58:55.034Z,-145.97
2023-02-17T07:01:26.372Z,-145.97
2023-02-17T07:03:54.893Z,-145.97
2023-02-17T07:06:23.705Z,-145.97
2023-02-17T07:08:51.432Z,-145.97
2023-02-17T07:11:19.120Z,-145.97
2023-02-17T07:13:47.213Z,-145.97
2023-02-17T07:16:15.372Z,-145.97
2023-02-17T07:18:42.777Z,-145.97
2023-02-17T07:21:11.280Z,-145.97
2023-02-17T07:23:39.702Z,-145.97
2023-02-17T07:26:10.309Z,-145.97
2023-02-17T07:28:39.660Z,-145.97
2023-02-17T07:31:13.641Z,-145.97
2023-02-17T07:33:41.768Z,-145.97
2023-02-17T07:36:14.115Z,-145.97
2023-02-17T07:38:42.208Z,-145.97
2023-02-17T07:41:15.284Z,-145.97
2023-02-17T07:43:42.655Z,-145.97
2023-02-17T07:46:12.086Z,-145.97
2023-02-17T07:48:39.718Z,-145.97
2023-02-17T07:51:15.304Z,-145.97
2023-02-17T07:53:42.639Z,-145.97
2023-02-17T07:56:13.105Z,-145.97
2023-02-17T07:58:42.541Z,-145.97
2023-02-17T08:01:19.235Z,-145.97
2023-02-17T08:03:47.900Z,-145.97
2023-02-17T08:06:18.945Z,-145.97
2023-02-17T08:09:05.904Z,-145.97
2023-02-17T08:11:52.849Z,-145.97
2023-02-17T08:14:23.710Z,-145.97
2023-02-17T08:16:51.448Z,-145.97
2023-02-17T08:19:18.645Z,-145.97
2023-02-17T08:21:46.907Z,-145.97
2023-02-17T08:24:14.397Z,-145.97
2023-02-17T08:26:42.181Z,-145.97
2023-02-17T08:29:09.380Z,-145.97
2023-02-17T08:31:37.660Z,-145.97
2023-02-17T08:34:07.476Z,-145.97
2023-02-17T08:36:37.757Z,-145.97
2023-02-17T08:39:07.645Z,-145.97
2023-02-17T08:41:38.098Z,-145.97
2023-02-17T08:44:12.471Z,-145.97
2023-02-17T08:46:40.669Z,-145.97
2023-02-17T08:49:08.249Z,-145.97
2023-02-17T08:51:36.963Z,-145.97
2023-02-17T08:54:06.558Z,-145.97
2023-02-17T08:56:35.159Z,-145.97
2023-02-17T08:59:02.769Z,-145.97
2023-02-17T09:01:31.368Z,-145.97
2023-02-17T09:04:00.545Z,-145.97
2023-02-17T09:06:41.917Z,-145.97
2023-02-17T09:09:12.327Z,-145.97
2023-02-17T09:11:40.178Z,-145.97
2023-02-17T09:14:07.883Z,-145.97
2023-02-17T09:16:36.591Z,-145.97
2023-02-17T09:19:04.463Z,-145.97
2023-02-17T09:21:32.180Z,-145.97
2023-02-17T09:23:59.378Z,-145.97
2023-02-17T09:26:27.164Z,-145.97
2023-02-17T09:28:54.614Z,-145.97
2023-02-17T09:31:25.793Z,-145.97
2023-02-17T09:33:53.813Z,-145.97
2023-02-17T09:36:30.277Z,-145.97
2023-02-17T09:38:58.659Z,-145.97
2023-02-17T09:41:41.777Z,-145.97
2023-02-17T09:44:27.396Z,-145.97
2023-02-17T09:47:08.341Z,-145.97
2023-02-17T09:49:45.245Z,-145.97
2023-02-17T09:52:32.348Z,-145.97
2023-02-17T09:55:08.394Z,-145.97
2023-02-17T09:57:44.336Z,-145.97
2023-02-17T10:00:19.829Z,-145.97
2023-02-17T10:03:03.238Z,-145.97
2023-02-17T10:05:41.180Z,-145.97
2023-02-17T10:08:27.239Z,-145.97
2023-02-17T10:11:01.983Z,-145.97
2023-02-17T10:13:34.055Z,-145.97
2023-02-17T10:16:10.650Z,-145.97
2023-02-17T10:19:06.307Z,-145.97
2023-02-17T10:21:44.994Z,-145.97
2023-02-17T10:24:13.499Z,-145.97
2023-02-17T10:27:06.816Z,-145.97
2023-02-17T10:30:23.037Z,-145.97
2023-02-17T10:33:14.895Z,-145.97
2023-02-17T10:35:51.447Z,-145.97
2023-02-17T10:38:48.019Z,-145.97
2023-02-17T10:41:21.780Z,-145.97
2023-02-17T10:43:53.360Z,-145.97
2023-02-17T10:46:28.059Z,-145.97
2023-02-17T10:48:57.849Z,-145.97
2023-02-17T10:51:28.590Z,-145.97
2023-02-17T10:54:33.272Z,-145.97
2023-02-17T10:57:04.063Z,-145.97
2023-02-17T10:59:40.654Z,-145.97
2023-02-17T11:02:34.759Z,-145.97
2023-02-17T11:05:02.402Z,-145.97
2023-02-17T11:07:39.471Z,-145.97
2023-02-17T11:10:29.170Z,-145.97
2023-02-17T11:12:59.021Z,-145.97
2023-02-17T11:15:30.300Z,-145.97
2023-02-17T11:18:01.696Z,-145.97
2023-02-17T11:20:33.231Z,-145.97
2023-02-17T11:23:23.390Z,-145.97
2023-02-17T11:26:10.684Z,-145.97
2023-02-17T11:28:38.710Z,-145.97
2023-02-17T11:31:13.863Z,-145.97
2023-02-17T11:33:46.988Z,-145.97
2023-02-17T11:36:31.829Z,-145.97
2023-02-17T11:39:19.778Z,-145.97
2023-02-17T11:41:49.926Z,-145.97
2023-02-17T11:44:28.846Z,-145.97
2023-02-17T11:47:12.290Z,-145.97
2023-02-17T11:49:53.435Z,-145.97
2023-02-17T11:52:34.501Z,-145.97
2023-02-17T11:55:16.144Z,-145.97
2023-02-17T11:58:01.961Z,-145.97
2023-02-17T12:00:50.869Z,-145.97
2023-02-17T12:03:36.649Z,-145.97
2023-02-17T12:06:19.688Z,-145.97
2023-02-17T12:09:08.174Z,-145.97
2023-02-17T12:11:50.003Z,-145.97
2023-02-17T12:14:36.176Z,-145.97
2023-02-17T12:17:18.782Z,-145.97
2023-02-17T12:20:15.396Z,-145.97
2023-02-17T12:23:02.014Z,-145.97
2023-02-17T12:25:58.574Z,-145.97
2023-02-17T12:28:51.806Z,-145.97
2023-02-17T12:31:35.536Z,-145.97
2023-02-17T12:34:16.750Z,-145.97
2023-02-17T12:36:46.255Z,-145.97
2023-02-17T12:39:20.750Z,-145.97
2023-02-17T12:42:18.542Z,-145.97
2023-02-17T12:45:24.510Z,-145.97
2023-02-17T12:48:01.214Z,-145.97
2023-02-17T12:50:40.187Z,-145.97
2023-02-17T12:53:17.552Z,-145.97
2023-02-17T12:55:57.736Z,-145.97
2023-02-17T12:58:31.283Z,-145.97
2023-02-17T13:01:11.917Z,-145.97
2023-02-17T13:03:39.768Z,-145.97
2023-02-17T13:06:37.410Z,-145.97
2023-02-17T13:09:22.243Z,-145.97
2023-02-17T13:11:50.695Z,-145.97
2023-02-17T13:14:39.107Z,-145.97
2023-02-17T13:17:07.114Z,-145.97
2023-02-17T13:19:36.280Z,-145.97
2023-02-17T13:22:06.659Z,-145.97
2023-02-17T13:24:37.230Z,-145.97
2023-02-17T13:27:30.371Z,-145.97
2023-02-17T13:30:22.794Z,-145.97
2023-02-17T13:33:06.684Z,-145.97
2023-02-17T13:35:37.072Z,-145.97
2023-02-17T13:38:04.712Z,-145.97
2023-02-17T13:40:38.692Z,-145.97
2023-02-17T13:43:24.348Z,-145.97
2023-02-17T13:46:06.555Z,-145.97
2023-02-17T13:48:36.155Z,-145.97
2023-02-17T13:51:10.173Z,-145.97
2023-02-17T13:53:40.400Z,-145.97
2023-02-17T13:56:43.327Z,-145.97
2023-02-17T13:59:18.713Z,-145.97
2023-02-17T14:01:47.323Z,-145.97
2023-02-17T14:04:33.083Z,-145.97
2023-02-17T14:07:04.972Z,-145.97
2023-02-17T14:09:34.788Z,-145.97
2023-02-17T14:12:04.828Z,-145.97
2023-02-17T14:14:37.890Z,-145.97
2023-02-17T14:17:09.408Z,-145.97
2023-02-17T14:19:46.165Z,-145.97
2023-02-17T14:22:32.393Z,-145.97
2023-02-17T14:25:07.489Z,-145.97
2023-02-17T14:27:50.386Z,-145.97
2023-02-17T14:30:35.534Z,-145.97
2023-02-17T14:33:20.050Z,-145.97
2023-02-17T14:35:57.276Z,-145.97
2023-02-17T14:38:35.452Z,-145.97
2023-02-17T14:41:08.060Z,-145.97
2023-02-17T14:43:35.951Z,-145.97
2023-02-17T14:46:04.310Z,-145.97
2023-02-17T14:48:31.847Z,-145.97
2023-02-17T14:50:59.653Z,-145.97
2023-02-17T14:53:33.435Z,-145.97
2023-02-17T14:56:22.664Z,-145.97
2023-02-17T14:58:50.530Z,-145.97
2023-02-17T15:01:20.986Z,-145.97
2023-02-17T15:03:48.832Z,-145.97
2023-02-17T15:06:19.830Z,-145.97
2023-02-17T15:08:49.630Z,-145.97
2023-02-17T15:11:27.563Z,-145.97
2023-02-17T15:13:55.426Z,-145.97
2023-02-17T15:16:23.308Z,-145.97
2023-02-17T15:18:51.178Z,-145.97
2023-02-17T15:21:31.335Z,-145.97
2023-02-17T15:24:00.831Z,-145.97
2023-02-17T15:26:30.709Z,-145.97
2023-02-17T15:28:58.899Z,-145.97
2023-02-17T15:31:29.783Z,-145.97
2023-02-17T15:34:01.284Z,-145.97
2023-02-17T15:36:29.149Z,-145.97
2023-02-17T15:38:56.554Z,-145.97
2023-02-17T15:41:27.282Z,-145.97
2023-02-17T15:43:56.563Z,-145.97
2023-02-17T15:46:31.311Z,-145.97
2023-02-17T15:48:59.287Z,-145.97
2023-02-17T15:51:29.696Z,-145.97
2023-02-17T15:53:57.192Z,-145.97
2023-02-17T15:56:30.273Z,-145.97
2023-02-17T15:59:01.525Z,-145.97
2023-02-17T16:01:32.335Z,-145.97
2023-02-17T16:04:00.259Z,-145.97
2023-02-17T16:06:29.075Z,-145.97
2023-02-17T16:08:59.024Z,-145.97
2023-02-17T16:11:28.748Z,-145.97
2023-02-17T16:13:56.938Z,-145.97
2023-02-17T16:16:29.761Z,-145.97
2023-02-17T16:18:57.313Z,-145.97
2023-02-17T16:21:25.361Z,-145.97
2023-02-17T16:23:59.379Z,-145.97
2023-02-17T16:26:33.522Z,-145.97
2023-02-17T16:29:16.528Z,-145.97
2023-02-17T16:31:45.423Z,-145.97
2023-02-17T16:34:24.082Z,-145.97
2023-02-17T16:36:57.666Z,-145.97
2023-02-17T16:39:25.885Z,-145.97
2023-02-17T16:41:53.928Z,-145.97
2023-02-17T16:44:23.206Z,-145.97
2023-02-17T16:46:56.808Z,-145.97
2023-02-17T16:49:33.700Z,-145.97
2023-02-17T16:52:07.280Z,-145.97
2023-02-17T16:54:35.798Z,-145.97
2023-02-17T16:57:05.369Z,-145.97
2023-02-17T16:59:33.767Z,-145.97
2023-02-17T17:02:02.391Z,-145.97
2023-02-17T17:04:31.904Z,-145.97
2023-02-17T17:06:59.803Z,-145.97
2023-02-17T17:09:28.422Z,-145.97
2023-02-17T17:11:57.535Z,-145.97
2023-02-17T17:14:25.301Z,-145.97
2023-02-17T17:16:58.955Z,-145.97
2023-02-17T17:19:26.709Z,-145.97
2023-02-17T17:21:54.646Z,-145.97
2023-02-17T17:24:23.329Z,-145.97
2023-02-17T17:26:52.396Z,-145.97
2023-02-17T17:29:21.089Z,-145.97
2023-02-17T17:31:50.284Z,-145.97
2023-02-17T17:34:17.762Z,-145.97
2023-02-17T17:36:48.635Z,-145.97
2023-02-17T17:39:19.955Z,-145.97
2023-02-17T17:41:48.447Z,-145.97
2023-02-17T17:44:17.406Z,-145.97
2023-02-17T17:46:47.331Z,-145.97
2023-02-17T17:49:18.284Z,-145.97
2023-02-17T17:51:46.628Z,-145.97
2023-02-17T17:54:14.254Z,-145.97
2023-02-17T17:56:44.719Z,-145.97
2023-02-17T17:59:16.898Z,-145.97
2023-02-17T18:01:46.214Z,-145.97
2023-02-17T18:04:14.059Z,-145.97
2023-02-17T18:06:49.062Z,-145.97
2023-02-17T18:09:31.236Z,-145.97
2023-02-17T18:12:04.814Z,-145.97
2023-02-17T18:14:32.870Z,-145.97
2023-02-17T18:17:01.329Z,-145.97
2023-02-17T18:19:29.640Z,-145.97
2023-02-17T18:21:57.346Z,-145.97
2023-02-17T18:24:24.768Z,-145.97
2023-02-17T18:26:52.600Z,-145.97
2023-02-17T18:29:20.196Z,-145.97
2023-02-17T18:31:48.230Z,-145.97
2023-02-17T18:34:16.882Z,-145.97
2023-02-17T18:36:46.106Z,-145.97
2023-02-17T18:39:13.481Z,-145.97
2023-02-17T18:41:41.322Z,-145.97
2023-02-17T18:44:10.043Z,-145.97
2023-02-17T18:46:39.402Z,-145.97
2023-02-17T18:49:07.472Z,-145.97
2023-02-17T18:51:35.126Z,-145.97
2023-02-17T18:54:03.632Z,-145.97
2023-02-17T18:56:33.706Z,-145.97
2023-02-17T18:59:01.249Z,-145.97
2023-02-17T19:01:34.884Z,-145.97
2023-02-17T19:04:02.663Z,-145.97
2023-02-17T19:06:34.539Z,-145.97
2023-02-17T19:09:04.562Z,-145.97
2023-02-17T19:11:33.318Z,-145.97
2023-02-17T19:14:02.950Z,-145.97
2023-02-17T19:16:32.323Z,-145.97
2023-02-17T19:19:00.548Z,-145.97
2023-02-17T19:21:28.487Z,-145.97
2023-02-17T19:24:06.911Z,-145.97
2023-02-17T19:26:38.122Z,-145.97
2023-02-17T19:29:07.305Z,-145.97
2023-02-17T19:31:35.265Z,-145.97
2023-02-17T19:34:02.975Z,-145.97
2023-02-17T19:36:30.885Z,-145.97
2023-02-17T19:38:58.632Z,-145.97
2023-02-17T19:41:26.612Z,-145.97
2023-02-17T19:43:54.186Z,-145.97
2023-02-17T19:46:24.561Z,-145.97
2023-02-17T19:48:51.978Z,-145.97
2023-02-17T19:51:20.433Z,-145.97
2023-02-17T19:53:47.857Z,-145.97
2023-02-17T19:56:21.561Z,-145.97
2023-02-17T19:58:49.242Z,-145.97
2023-02-17T20:01:22.803Z,-145.97
2023-02-17T20:03:50.296Z,-145.97
2023-02-17T20:06:27.534Z,-145.97
2023-02-17T20:08:58.311Z,-145.97
2023-02-17T20:11:26.548Z,-145.97
2023-02-17T20:13:54.230Z,-145.97
2023-02-17T20:16:22.025Z,-145.97
2023-02-17T20:18:50.942Z,-145.97
2023-02-17T20:21:22.066Z,-145.97
2023-02-17T20:23:49.828Z,-145.97
2023-02-17T20:26:21.826Z,-145.97
2023-02-17T20:28:50.355Z,-145.97
2023-02-17T20:31:18.677Z,-145.97
2023-02-17T20:33:46.785Z,-145.97
2023-02-17T20:36:14.962Z,-145.97
2023-02-17T20:38:42.514Z,-145.97
2023-02-17T20:41:14.258Z,-145.97
2023-02-17T20:43:41.889Z,-145.97
2023-02-17T20:46:39.829Z,-145.97
2023-02-17T20:49:07.291Z,-145.97
2023-02-17T20:51:34.946Z,-145.97
2023-02-17T20:54:02.363Z,-145.97
2023-02-17T20:56:37.403Z,-145.97
2023-02-17T20:59:05.723Z,-145.97
2023-02-17T21:01:33.685Z,-145.97
2023-02-17T21:04:01.397Z,-145.97
2023-02-17T21:06:33.724Z,-145.97
2023-02-17T21:09:04.856Z,-145.97
2023-02-17T21:11:33.847Z,-145.97
2023-02-17T21:14:01.308Z,-145.97
2023-02-17T21:16:31.398Z,-145.97
2023-02-17T21:19:00.644Z,-145.97
2023-02-17T21:21:29.632Z,-145.97
2023-02-17T21:23:58.006Z,-145.97
2023-02-17T21:26:25.774Z,-145.97
2023-02-17T21:28:53.774Z,-145.97
2023-02-17T21:31:21.779Z,-145.97
2023-02-17T21:33:49.254Z,-145.97
2023-02-17T21:36:18.403Z,-145.97
2023-02-17T21:38:46.945Z,-145.97
2023-02-17T21:41:18.591Z,-145.97
2023-02-17T21:44:04.944Z,-145.97
2023-02-17T21:46:33.648Z,-145.97
2023-02-17T21:49:02.021Z,-145.97
2023-02-17T21:51:31.049Z,-145.97
2023-02-17T21:53:59.485Z,-145.97
2023-02-17T21:56:27.278Z,-145.97
2023-02-17T21:58:55.689Z,-145.97
2023-02-17T22:01:25.971Z,-145.97
2023-02-17T22:03:53.831Z,-145.97
2023-02-17T22:06:27.818Z,-145.97
2023-02-17T22:08:56.589Z,-145.97
2023-02-17T22:11:29.124Z,-145.97
2023-02-17T22:13:58.503Z,-145.97
2023-02-17T22:16:26.529Z,-145.97
2023-02-17T22:18:53.846Z,-145.97
2023-02-17T22:21:21.535Z,-145.97
2023-02-17T22:23:59.871Z,-145.97
2023-02-17T22:26:28.147Z,-145.97
2023-02-17T22:28:56.180Z,-145.97
2023-02-17T22:31:27.166Z,-145.97
2023-02-17T22:33:57.655Z,-145.97
2023-02-17T22:36:27.597Z,-145.97
2023-02-17T22:38:55.010Z,-145.97
2023-02-17T22:41:24.951Z,-145.97
2023-02-17T22:43:54.420Z,-145.97
2023-02-17T22:46:28.109Z,-145.97
2023-02-17T22:48:57.186Z,-145.97
2023-02-17T22:51:35.561Z,-145.97
2023-02-17T22:54:04.338Z,-145.97
2023-02-17T22:56:33.970Z,-145.97
2023-02-17T22:59:04.196Z,-145.97
2023-02-17T23:01:35.088Z,-145.97
2023-02-17T23:04:02.910Z,-145.97
2023-02-17T23:06:34.665Z,-145.97
2023-02-17T23:09:02.740Z,-145.97
2023-02-17T23:11:54.905Z,-145.97
2023-02-17T23:14:24.404Z,-145.97
2023-02-17T23:16:52.920Z,-145.97
2023-02-17T23:19:22.617Z,-145.97
2023-02-17T23:21:57.031Z,-145.97
2023-02-17T23:24:26.039Z,-145.97
2023-02-17T23:26:56.203Z,-145.97
2023-02-17T23:29:24.422Z,-145.97
2023-02-17T23:31:52.267Z,-145.97
2023-02-17T23:34:19.635Z,-145.97
2023-02-17T23:36:47.452Z,-145.97
2023-02-17T23:39:16.294Z,-145.97
2023-02-17T23:41:44.268Z,-145.97
2023-02-17T23:44:13.370Z,-145.97
2023-02-17T23:46:42.580Z,-145.97
2023-02-17T23:49:13.455Z,-145.97
2023-02-17T23:51:42.401Z,-145.97
2023-02-17T23:54:09.739Z,-145.97
